createdAt,value
2018-06-07T00:00:41.602Z,10.27
2018-06-07T00:03:09.636Z,9.80
2018-06-07T00:05:37.895Z,9.80
2018-06-07T00:08:06.131Z,10.58
2018-06-07T00:10:34.381Z,10.30
2018-06-07T00:13:02.699Z,10.58
2018-06-07T00:15:30.953Z,10.10
2018-06-07T00:17:59.209Z,9.98
2018-06-07T00:20:27.478Z,10.72
2018-06-07T00:22:55.781Z,10.03
2018-06-07T00:25:24.039Z,10.65
2018-06-07T00:27:52.269Z,10.50
2018-06-07T00:30:20.264Z,10.63
2018-06-07T00:32:48.521Z,10.30
2018-06-07T00:35:16.789Z,10.93
2018-06-07T00:37:45.090Z,10.90
2018-06-07T00:40:13.360Z,10.60
2018-06-07T00:42:41.647Z,10.50
2018-06-07T00:45:09.895Z,10.77
2018-06-07T00:47:38.132Z,10.70
2018-06-07T00:50:06.417Z,11.60
2018-06-07T00:52:34.659Z,11.15
2018-06-07T00:55:03.011Z,10.82
2018-06-07T00:57:31.309Z,10.25
2018-06-07T00:59:59.586Z,11.33
2018-06-07T01:02:27.826Z,11.08
2018-06-07T01:04:56.048Z,10.53
2018-06-07T01:07:24.275Z,11.50
2018-06-07T01:09:52.536Z,11.00
2018-06-07T01:12:20.806Z,11.10
2018-06-07T01:14:49.084Z,11.33
2018-06-07T01:17:17.339Z,11.18
2018-06-07T01:19:45.558Z,11.20
2018-06-07T01:22:13.846Z,11.57
2018-06-07T01:24:42.121Z,11.57
2018-06-07T01:27:10.477Z,12.00
2018-06-07T01:29:50.199Z,12.07
2018-06-07T01:33:34.131Z,11.68
2018-06-07T01:36:02.934Z,12.10
2018-06-07T01:38:42.797Z,12.55
2018-06-07T01:41:11.085Z,12.33
2018-06-07T01:43:39.354Z,12.50
2018-06-07T01:46:07.611Z,11.80
2018-06-07T01:48:35.863Z,11.90
2018-06-07T01:51:04.102Z,12.50
2018-06-07T01:53:32.361Z,12.45
2018-06-07T01:56:00.627Z,11.70
2018-06-07T01:58:28.877Z,11.65
2018-06-07T02:00:56.906Z,13.00
2018-06-07T02:03:25.148Z,12.50
2018-06-07T02:05:53.452Z,12.05
2018-06-07T02:08:21.698Z,13.03
2018-06-07T02:10:49.964Z,12.80
2018-06-07T02:13:18.243Z,12.30
2018-06-07T02:15:46.503Z,13.10
2018-06-07T02:18:14.757Z,13.05
2018-06-07T02:20:43.018Z,12.80
2018-06-07T02:23:11.276Z,13.07
2018-06-07T02:25:39.554Z,13.00
2018-06-07T02:28:07.823Z,12.80
2018-06-07T02:30:35.810Z,12.90
2018-06-07T02:33:03.795Z,12.95
2018-06-07T02:35:31.816Z,13.08
2018-06-07T02:38:00.118Z,12.90
2018-06-07T02:40:28.376Z,13.20
2018-06-07T02:42:56.625Z,13.55
2018-06-07T02:45:24.887Z,12.75
2018-06-07T02:47:52.886Z,13.43
2018-06-07T02:50:21.197Z,13.15
2018-06-07T02:52:49.226Z,13.80
2018-06-07T02:55:17.487Z,14.15
2018-06-07T02:57:45.759Z,14.47
2018-06-07T03:00:14.038Z,13.80
2018-06-07T03:02:42.034Z,13.38
2018-06-07T03:05:10.370Z,14.10
2018-06-07T03:07:38.615Z,13.50
2018-06-07T03:10:06.878Z,13.53
2018-06-07T03:12:35.140Z,14.03
2018-06-07T03:15:03.482Z,14.20
2018-06-07T03:17:31.703Z,13.98
2018-06-07T03:19:59.967Z,14.47
2018-06-07T03:22:28.243Z,14.30
2018-06-07T03:24:56.492Z,13.80
2018-06-07T03:27:24.771Z,14.93
2018-06-07T03:29:53.022Z,14.10
2018-06-07T03:32:21.281Z,14.30
2018-06-07T03:34:49.533Z,14.28
2018-06-07T03:37:17.806Z,13.90
2018-06-07T03:39:46.075Z,14.30
2018-06-07T03:42:14.334Z,14.30
2018-06-07T03:44:42.579Z,14.43
2018-06-07T03:47:10.839Z,14.43
2018-06-07T03:49:39.096Z,14.90
2018-06-07T03:52:07.355Z,14.87
2018-06-07T03:54:37.957Z,15.28
2018-06-07T03:57:06.264Z,14.60
2018-06-07T03:59:34.558Z,14.10
2018-06-07T04:02:02.837Z,14.95
2018-06-07T04:04:31.111Z,14.00
2018-06-07T04:06:59.350Z,14.40
2018-06-07T04:09:27.603Z,14.98
2018-06-07T04:11:55.864Z,14.00
2018-06-07T04:14:24.125Z,13.90
2018-06-07T04:16:52.366Z,14.43
2018-06-07T04:19:20.674Z,14.90
2018-06-07T04:21:48.918Z,15.13
2018-06-07T04:24:17.178Z,14.33
2018-06-07T04:26:45.447Z,14.65
2018-06-07T04:29:13.691Z,14.53
2018-06-07T04:31:42.038Z,14.20
2018-06-07T04:34:10.316Z,14.40
2018-06-07T04:36:38.547Z,13.85
2018-06-07T04:39:07.501Z,13.98
2018-06-07T04:41:35.748Z,13.70
2018-06-07T04:44:04.035Z,14.47
2018-06-07T04:46:32.257Z,14.50
2018-06-07T04:49:00.247Z,14.57
2018-06-07T04:51:28.507Z,14.33
2018-06-07T04:53:56.775Z,15.53
2018-06-07T04:56:25.016Z,14.20
2018-06-07T04:58:53.268Z,14.28
2018-06-07T05:01:21.517Z,14.73
2018-06-07T05:03:49.751Z,14.23
2018-06-07T05:06:18.020Z,14.33
2018-06-07T05:08:46.308Z,13.90
2018-06-07T05:11:14.559Z,14.60
2018-06-07T05:13:42.818Z,14.53
2018-06-07T05:16:11.067Z,14.93
2018-06-07T05:18:39.437Z,15.10
2018-06-07T05:21:07.700Z,14.15
2018-06-07T05:23:35.949Z,13.75
2018-06-07T05:26:04.224Z,13.78
2018-06-07T05:28:32.468Z,13.97
2018-06-07T05:31:00.778Z,14.63
2018-06-07T05:33:29.028Z,14.35
2018-06-07T05:35:57.274Z,15.30
2018-06-07T05:38:25.554Z,15.00
2018-06-07T05:40:53.513Z,13.95
2018-06-07T05:43:21.748Z,15.43
2018-06-07T05:45:50.044Z,14.03
2018-06-07T05:48:18.322Z,15.23
2018-06-07T05:50:46.566Z,15.63
2018-06-07T05:53:15.865Z,15.78
2018-06-07T05:55:45.127Z,15.80
2018-06-07T05:58:13.385Z,16.32
2018-06-07T06:00:41.669Z,15.80
2018-06-07T06:03:10.035Z,15.43
2018-06-07T06:05:38.376Z,16.45
2018-06-07T06:08:06.552Z,15.83
2018-06-07T06:10:34.542Z,15.88
2018-06-07T06:13:02.547Z,16.75
2018-06-07T06:15:30.852Z,16.12
2018-06-07T06:17:59.144Z,17.25
2018-06-07T06:20:27.710Z,16.32
2018-06-07T06:22:55.944Z,17.00
2018-06-07T06:25:24.208Z,15.93
2018-06-07T06:27:52.532Z,17.02
2018-06-07T06:30:20.757Z,17.00
2018-06-07T06:32:49.059Z,17.60
2018-06-07T06:35:17.312Z,17.30
2018-06-07T06:38:52.141Z,16.97
2018-06-07T06:41:20.422Z,18.10
2018-06-07T06:43:48.655Z,17.20
2018-06-07T06:46:16.946Z,16.85
2018-06-07T06:48:45.251Z,17.48
2018-06-07T06:51:13.500Z,17.43
2018-06-07T06:53:41.773Z,18.05
2018-06-07T06:56:10.035Z,17.37
2018-06-07T06:58:38.318Z,16.75
2018-06-07T07:01:06.560Z,16.40
2018-06-07T07:03:34.825Z,16.50
2018-06-07T07:06:03.067Z,17.82
2018-06-07T07:08:31.299Z,17.07
2018-06-07T07:10:59.563Z,17.17
2018-06-07T07:13:27.828Z,16.10
2018-06-07T07:15:56.099Z,16.73
2018-06-07T07:18:24.096Z,16.80
2018-06-07T07:20:52.367Z,17.40
2018-06-07T07:23:20.689Z,17.30
2018-06-07T07:25:48.916Z,16.27
2018-06-07T07:28:17.181Z,16.50
2018-06-07T07:30:45.426Z,16.73
2018-06-07T07:33:13.680Z,17.23
2018-06-07T07:35:42.252Z,15.75
2018-06-07T07:38:10.535Z,17.35
2018-06-07T07:40:38.811Z,15.85
2018-06-07T07:43:07.091Z,15.87
2018-06-07T07:45:35.327Z,16.93
2018-06-07T07:48:03.618Z,16.50
2018-06-07T07:50:31.863Z,16.30
2018-06-07T07:53:00.108Z,17.47
2018-06-07T07:55:28.355Z,17.32
2018-06-07T07:57:56.619Z,16.48
2018-06-07T08:00:24.897Z,17.23
2018-06-07T08:02:53.143Z,17.20
2018-06-07T08:05:21.381Z,16.37
2018-06-07T08:07:49.672Z,16.55
2018-06-07T08:10:17.913Z,16.10
2018-06-07T08:12:46.209Z,17.05
2018-06-07T08:15:14.493Z,15.48
2018-06-07T08:17:42.765Z,16.82
2018-06-07T08:20:11.001Z,16.02
2018-06-07T08:22:39.273Z,15.33
2018-06-07T08:25:07.613Z,16.48
2018-06-07T08:27:35.889Z,17.00
2018-06-07T08:30:04.164Z,17.50
2018-06-07T08:32:32.422Z,17.65
2018-06-07T08:35:00.688Z,17.00
2018-06-07T08:37:28.956Z,16.12
2018-06-07T08:39:57.200Z,16.85
2018-06-07T08:42:25.463Z,15.93
2018-06-07T08:44:53.705Z,17.67
2018-06-07T08:47:21.974Z,16.77
2018-06-07T08:49:50.253Z,17.95
2018-06-07T08:52:18.503Z,16.17
2018-06-07T08:54:48.674Z,15.60
2018-06-07T08:57:17.252Z,15.90
2018-06-07T08:59:45.509Z,16.67
2018-06-07T09:02:13.760Z,16.50
2018-06-07T09:04:42.007Z,15.80
2018-06-07T09:07:10.278Z,15.90
2018-06-07T09:09:38.518Z,16.10
2018-06-07T09:12:06.802Z,16.60
2018-06-07T09:14:35.064Z,16.87
2018-06-07T09:17:03.337Z,15.45
2018-06-07T09:19:31.615Z,16.10
2018-06-07T09:21:59.892Z,15.35
2018-06-07T09:24:28.226Z,15.03
2018-06-07T09:26:56.490Z,15.13
2018-06-07T09:29:24.736Z,15.78
2018-06-07T09:31:53.004Z,14.78
2018-06-07T09:34:21.298Z,16.10
2018-06-07T09:36:49.549Z,16.23
2018-06-07T09:39:17.810Z,15.40
2018-06-07T09:41:46.040Z,15.13
2018-06-07T09:44:14.275Z,16.05
2018-06-07T09:46:42.563Z,16.00
2018-06-07T09:49:10.829Z,15.88
2018-06-07T09:51:38.808Z,16.57
2018-06-07T09:54:07.070Z,17.02
2018-06-07T09:56:35.366Z,17.62
2018-06-07T09:59:03.654Z,17.27
2018-06-07T10:01:31.892Z,18.25
2018-06-07T10:04:00.141Z,17.02
2018-06-07T10:06:28.438Z,17.73
2018-06-07T10:08:56.688Z,16.30
2018-06-07T10:11:24.969Z,17.20
2018-06-07T10:13:53.207Z,16.60
2018-06-07T10:16:21.526Z,16.27
2018-06-07T10:18:49.763Z,17.87
2018-06-07T10:21:18.026Z,18.40
2018-06-07T10:23:46.372Z,18.07
2018-06-07T10:26:14.607Z,16.90
2018-06-07T10:28:42.856Z,16.87
2018-06-07T10:31:11.103Z,17.10
2018-06-07T10:33:39.379Z,16.95
2018-06-07T10:36:07.629Z,17.10
2018-06-07T10:38:35.918Z,16.20
2018-06-07T10:41:04.165Z,15.65
2018-06-07T10:43:32.412Z,17.02
2018-06-07T10:46:00.660Z,15.50
2018-06-07T10:48:28.966Z,15.58
2018-06-07T10:50:57.553Z,14.57
2018-06-07T10:54:23.301Z,13.70
2018-06-07T10:56:51.573Z,14.23
2018-06-07T10:59:19.570Z,15.57
2018-06-07T11:01:47.835Z,14.55
2018-06-07T11:04:15.812Z,14.55
2018-06-07T11:06:44.047Z,13.50
2018-06-07T11:09:12.312Z,12.93
2018-06-07T11:11:40.596Z,14.73
2018-06-07T11:14:08.854Z,15.00
2018-06-07T11:16:37.122Z,14.23
2018-06-07T11:19:05.423Z,12.90
2018-06-07T11:21:33.670Z,14.13
2018-06-07T11:24:02.011Z,13.33
2018-06-07T11:26:30.230Z,14.87
2018-06-07T11:28:58.477Z,13.13
2018-06-07T11:31:26.763Z,14.27
2018-06-07T11:33:55.026Z,13.50
2018-06-07T11:36:23.273Z,12.90
2018-06-07T11:38:51.273Z,13.45
2018-06-07T11:41:19.535Z,12.65
2018-06-07T11:43:47.539Z,15.30
2018-06-07T11:46:15.796Z,16.37
2018-06-07T11:48:44.103Z,13.65
2018-06-07T11:51:12.330Z,14.35
2018-06-07T11:53:41.163Z,13.98
2018-06-07T11:56:09.383Z,13.60
2018-06-07T11:58:37.674Z,13.32
2018-06-07T12:01:06.027Z,12.78
2018-06-07T12:03:34.260Z,14.40
2018-06-07T12:06:02.611Z,13.20
2018-06-07T12:08:30.859Z,12.18
2018-06-07T12:10:59.118Z,12.93
2018-06-07T12:13:27.362Z,12.80
2018-06-07T12:15:55.626Z,12.40
2018-06-07T12:18:23.859Z,13.72
2018-06-07T12:20:51.843Z,14.10
2018-06-07T12:23:20.080Z,13.75
2018-06-07T12:25:48.363Z,14.28
2018-06-07T12:28:16.680Z,12.00
2018-06-07T12:30:45.009Z,14.40
2018-06-07T12:33:13.230Z,13.22
2018-06-07T12:35:41.549Z,13.43
2018-06-07T12:38:09.812Z,13.72
2018-06-07T12:40:38.057Z,12.70
2018-06-07T12:43:06.150Z,12.78
2018-06-07T12:45:34.417Z,11.88
2018-06-07T12:48:02.712Z,13.30
2018-06-07T12:50:30.936Z,10.90
2018-06-07T12:52:59.186Z,11.05
2018-06-07T12:55:27.148Z,11.30
2018-06-07T12:57:55.407Z,12.07
2018-06-07T13:00:23.672Z,12.07
2018-06-07T13:02:51.943Z,10.80
2018-06-07T13:05:20.216Z,11.70
2018-06-07T13:07:48.463Z,10.82
2018-06-07T13:10:16.782Z,11.10
2018-06-07T13:12:45.088Z,11.40
2018-06-07T13:15:13.053Z,12.00
2018-06-07T13:17:41.342Z,11.97
2018-06-07T13:20:09.571Z,11.85
2018-06-07T13:22:38.267Z,12.88
2018-06-07T13:25:07.227Z,14.20
2018-06-07T13:27:35.812Z,14.40
2018-06-07T13:30:04.183Z,14.07
2018-06-07T13:32:32.469Z,12.55
2018-06-07T13:35:00.699Z,12.50
2018-06-07T13:37:28.969Z,12.47
2018-06-07T13:39:57.222Z,13.60
2018-06-07T13:42:25.492Z,13.48
2018-06-07T13:44:53.779Z,14.17
2018-06-07T13:47:22.055Z,13.90
2018-06-07T13:49:50.685Z,13.62
2018-06-07T13:52:18.906Z,13.03
2018-06-07T13:54:47.206Z,13.43
2018-06-07T13:57:15.456Z,13.90
2018-06-07T13:59:43.716Z,15.70
2018-06-07T14:02:11.700Z,14.43
2018-06-07T14:04:39.951Z,14.60
2018-06-07T14:07:08.210Z,15.48
2018-06-07T14:09:36.495Z,14.30
2018-06-07T14:12:04.740Z,14.00
2018-06-07T14:14:32.979Z,14.77
2018-06-07T14:17:01.248Z,14.65
2018-06-07T14:19:29.558Z,14.83
2018-06-07T14:21:57.822Z,14.58
2018-06-07T14:24:26.086Z,14.20
2018-06-07T14:26:54.358Z,13.50
2018-06-07T14:29:22.359Z,14.45
2018-06-07T14:31:50.626Z,12.70
2018-06-07T14:34:18.860Z,12.13
2018-06-07T14:36:47.104Z,12.23
2018-06-07T14:39:15.352Z,12.75
2018-06-07T14:41:43.628Z,12.85
2018-06-07T14:44:11.878Z,11.63
2018-06-07T14:46:40.139Z,12.70
2018-06-07T14:49:08.377Z,13.10
2018-06-07T14:51:36.630Z,13.62
2018-06-07T14:54:04.600Z,13.08
2018-06-07T14:56:32.892Z,13.98
2018-06-07T14:59:01.172Z,12.47
2018-06-07T15:01:29.405Z,12.93
2018-06-07T15:03:57.636Z,12.50
2018-06-07T15:06:25.902Z,13.15
2018-06-07T15:08:54.244Z,14.23
2018-06-07T15:11:22.479Z,15.47
2018-06-07T15:13:50.719Z,13.40
2018-06-07T15:16:18.750Z,13.85
2018-06-07T15:18:46.993Z,15.55
2018-06-07T15:21:15.010Z,16.55
2018-06-07T15:23:43.269Z,15.88
2018-06-07T15:26:11.528Z,16.50
2018-06-07T15:28:39.769Z,16.12
2018-06-07T15:31:08.042Z,16.60
2018-06-07T15:33:36.296Z,15.80
2018-06-07T15:36:04.583Z,16.17
2018-06-07T15:38:32.824Z,16.05
2018-06-07T15:41:01.079Z,15.35
2018-06-07T15:43:29.089Z,15.38
2018-06-07T15:45:57.356Z,16.55
2018-06-07T15:48:25.583Z,15.08
2018-06-07T15:50:53.881Z,13.27
2018-06-07T15:53:22.861Z,14.10
2018-06-07T15:55:51.784Z,13.72
2018-06-07T15:58:20.063Z,14.17
2018-06-07T16:00:48.495Z,12.58
2018-06-07T16:03:16.775Z,11.00
2018-06-07T16:05:45.044Z,11.57
2018-06-07T16:08:13.861Z,11.40
2018-06-07T16:10:42.197Z,11.35
2018-06-07T16:13:10.495Z,12.18
2018-06-07T16:15:38.874Z,13.88
2018-06-07T16:18:06.910Z,14.30
2018-06-07T16:23:26.124Z,18.50
2018-06-07T16:25:54.487Z,22.40
2018-06-07T16:28:23.388Z,21.52
2018-06-07T16:30:51.657Z,19.73
2018-06-07T16:33:20.029Z,20.23
2018-06-07T16:35:48.307Z,21.45
2018-06-07T16:38:16.339Z,19.70
2018-06-07T16:40:44.634Z,19.63
2018-06-07T16:43:12.929Z,19.30
2018-06-07T16:45:41.287Z,20.70
2018-06-07T16:48:09.646Z,22.00
2018-06-07T16:50:37.943Z,22.52
2018-06-07T16:53:06.276Z,23.30
2018-06-07T16:55:34.569Z,24.37
2018-06-07T16:58:02.852Z,24.20
2018-06-07T17:00:31.148Z,22.40
2018-06-07T17:02:59.490Z,23.15
2018-06-07T17:05:27.810Z,21.55
2018-06-07T17:07:56.094Z,21.00
2018-06-07T17:10:24.673Z,21.87
2018-06-07T17:12:52.709Z,18.50
2018-06-07T17:15:20.988Z,18.70
2018-06-07T17:17:49.299Z,17.23
2018-06-07T17:20:17.701Z,16.17
2018-06-07T17:22:46.037Z,16.60
2018-06-07T17:25:14.301Z,15.68
2018-06-07T17:27:42.311Z,16.55
2018-06-07T17:30:10.603Z,16.40
2018-06-07T17:32:38.891Z,15.65
2018-06-07T17:35:07.150Z,15.75
2018-06-07T17:37:35.474Z,15.08
2018-06-07T17:40:03.948Z,15.70
2018-06-07T17:42:32.226Z,16.48
2018-06-07T17:45:00.193Z,20.45
2018-06-07T17:47:28.463Z,21.17
2018-06-07T17:49:56.708Z,21.60
2018-06-07T17:52:24.985Z,22.58
2018-06-07T17:54:53.294Z,19.98
2018-06-07T17:57:21.499Z,19.32
2018-06-07T17:59:49.766Z,19.85
2018-06-07T18:02:18.045Z,19.30
2018-06-07T18:04:46.588Z,18.67
2018-06-07T18:07:14.834Z,18.80
2018-06-07T18:09:43.117Z,19.17
2018-06-07T18:12:11.424Z,19.90
2018-06-07T18:14:39.738Z,20.05
2018-06-07T18:17:08.076Z,19.80
2018-06-07T18:19:36.384Z,19.40
2018-06-07T18:22:04.685Z,20.10
2018-06-07T18:24:32.980Z,20.12
2018-06-07T18:27:01.267Z,20.10
2018-06-07T18:29:29.521Z,21.10
2018-06-07T18:31:57.827Z,19.55
2018-06-07T18:34:26.237Z,20.60
2018-06-07T18:36:54.514Z,20.13
2018-06-07T18:39:22.806Z,19.17
2018-06-07T18:41:51.093Z,20.35
2018-06-07T18:44:19.367Z,19.92
2018-06-07T18:46:47.680Z,20.40
2018-06-07T18:49:15.983Z,20.23
2018-06-07T18:51:44.297Z,20.20
2018-06-07T18:54:12.573Z,21.17
2018-06-07T18:56:40.864Z,20.80
2018-06-07T18:59:09.173Z,21.12
2018-06-07T19:01:37.486Z,19.40
2018-06-07T19:04:05.805Z,20.88
2018-06-07T19:06:34.107Z,19.15
2018-06-07T19:09:07.831Z,19.17
2018-06-07T19:11:36.095Z,18.48
2018-06-07T19:14:09.916Z,18.42
2018-06-07T19:16:38.185Z,17.75
2018-06-07T19:19:11.811Z,17.20
2018-06-07T19:21:40.105Z,17.87
2018-06-07T19:24:08.410Z,16.23
2018-06-07T19:26:42.152Z,16.00
2018-06-07T19:29:10.375Z,16.05
2018-06-07T19:31:42.844Z,15.78
2018-06-07T19:34:16.479Z,15.38
2018-06-07T19:36:45.632Z,14.87
2018-06-07T19:39:19.446Z,14.30
2018-06-07T19:41:53.111Z,15.08
2018-06-07T19:44:21.388Z,14.10
2018-06-07T19:46:49.613Z,13.60
2018-06-07T19:49:17.966Z,12.60
2018-06-07T19:51:45.943Z,12.35
2018-06-07T19:54:14.191Z,13.28
2018-06-07T19:56:42.510Z,11.50
2018-06-07T19:59:12.072Z,12.10
2018-06-07T20:01:40.324Z,10.88
2018-06-07T20:04:08.605Z,11.43
2018-06-07T20:06:36.856Z,11.00
2018-06-07T20:09:07.853Z,12.07
2018-06-07T20:11:36.164Z,11.30
2018-06-07T20:14:04.416Z,10.80
2018-06-07T20:16:32.647Z,11.97
2018-06-07T20:19:01.833Z,10.40
2018-06-07T20:21:29.841Z,10.70
2018-06-07T20:23:58.175Z,9.80
2018-06-07T20:26:26.495Z,11.70
2018-06-07T20:28:54.527Z,11.25
2018-06-07T20:31:22.775Z,11.10
2018-06-07T20:33:51.042Z,11.25
2018-06-07T20:36:19.052Z,12.90
2018-06-07T20:38:47.317Z,13.65
2018-06-07T20:41:15.531Z,14.30
2018-06-07T20:43:43.776Z,14.10
2018-06-07T20:46:12.024Z,13.17
2018-06-07T20:48:40.304Z,15.65
2018-06-07T20:51:08.590Z,15.53
2018-06-07T20:53:36.926Z,13.50
2018-06-07T20:56:05.183Z,14.63
2018-06-07T20:58:33.451Z,15.48
2018-06-07T21:01:01.695Z,15.43
2018-06-07T21:03:29.930Z,16.52
2018-06-07T21:05:58.182Z,15.70
2018-06-07T21:08:26.430Z,15.83
2018-06-07T21:10:54.746Z,14.78
2018-06-07T21:13:22.995Z,14.40
2018-06-07T21:15:51.248Z,14.47
2018-06-07T21:18:19.528Z,14.60
2018-06-07T21:20:47.853Z,14.95
2018-06-07T21:23:16.105Z,16.17
2018-06-07T21:25:44.094Z,15.28
2018-06-07T21:28:12.091Z,14.35
2018-06-07T21:30:40.327Z,15.20
2018-06-07T21:33:08.613Z,15.68
2018-06-07T21:35:36.898Z,16.00
2018-06-07T21:38:05.127Z,15.60
2018-06-07T21:40:33.411Z,16.60
2018-06-07T21:43:01.662Z,15.15
2018-06-07T21:45:29.942Z,15.83
2018-06-07T21:47:58.204Z,16.65
2018-06-07T21:50:26.467Z,16.02
2018-06-07T21:52:54.713Z,16.30
2018-06-07T21:55:22.991Z,15.75
2018-06-07T21:57:51.258Z,15.75
2018-06-07T22:00:19.632Z,15.30
2018-06-07T22:02:47.882Z,15.85
2018-06-07T22:05:16.167Z,16.02
2018-06-07T22:07:44.437Z,15.47
2018-06-07T22:10:12.723Z,15.20
2018-06-07T22:12:40.991Z,14.33
2018-06-07T22:15:09.235Z,14.93
2018-06-07T22:17:37.523Z,13.45
2018-06-07T22:20:05.865Z,15.40
2018-06-07T22:22:34.097Z,14.63
2018-06-07T22:25:02.757Z,14.95
2018-06-07T22:27:31.034Z,14.50
2018-06-07T22:29:59.345Z,15.78
2018-06-07T22:32:27.612Z,14.20
2018-06-07T22:34:56.015Z,14.23
2018-06-07T22:37:24.294Z,13.20
2018-06-07T22:39:52.560Z,13.38
2018-06-07T22:42:20.840Z,13.60
2018-06-07T22:44:49.139Z,13.10
2018-06-07T22:47:17.384Z,13.98
2018-06-07T22:49:45.670Z,15.33
2018-06-07T22:52:13.933Z,14.28
2018-06-07T22:54:42.189Z,14.63
2018-06-07T22:57:10.444Z,12.75
2018-06-07T22:59:38.724Z,14.10
2018-06-07T23:02:07.058Z,13.80
2018-06-07T23:04:35.307Z,14.07
2018-06-07T23:07:03.563Z,13.65
2018-06-07T23:09:31.822Z,14.87
2018-06-07T23:12:00.068Z,14.55
2018-06-07T23:14:28.303Z,13.33
2018-06-07T23:16:56.570Z,13.75
2018-06-07T23:19:24.582Z,14.60
2018-06-07T23:21:52.823Z,14.20
2018-06-07T23:24:21.090Z,13.72
2018-06-07T23:26:49.311Z,14.45
2018-06-07T23:29:17.578Z,14.47
2018-06-07T23:31:45.833Z,14.70
2018-06-07T23:34:14.079Z,15.28
2018-06-07T23:36:42.360Z,14.95
2018-06-07T23:39:10.579Z,15.40
2018-06-07T23:41:38.846Z,15.70
2018-06-07T23:44:07.121Z,16.50
2018-06-07T23:46:35.337Z,16.62
2018-06-07T23:49:03.619Z,16.10
2018-06-07T23:51:31.853Z,15.70
2018-06-07T23:54:00.083Z,16.00
2018-06-07T23:56:28.350Z,16.42
2018-06-07T23:58:56.581Z,16.02
